createdAt,value
2023-04-18T00:12:54.890Z,6.84
2023-04-18T00:20:28.856Z,6.76
2023-04-18T00:28:04.376Z,6.75
2023-04-18T00:43:35.224Z,6.75
2023-04-18T00:51:11.034Z,6.76
2023-04-18T00:58:46.591Z,6.77
2023-04-18T01:06:20.864Z,6.76
2023-04-18T01:14:03.912Z,6.65
2023-04-18T01:21:41.938Z,6.61
2023-04-18T01:29:17.357Z,6.50
2023-04-18T01:36:51.305Z,6.49
2023-04-18T01:44:26.675Z,6.47
2023-04-18T01:52:01.021Z,6.48
2023-04-18T01:59:36.549Z,6.45
2023-04-18T02:07:10.764Z,6.42
2023-04-18T02:14:45.990Z,6.37
2023-04-18T02:22:20.162Z,6.31
2023-04-18T02:29:55.643Z,6.20
2023-04-18T02:37:29.620Z,6.17
2023-04-18T02:45:05.546Z,6.17
2023-04-18T02:52:39.331Z,6.10
2023-04-18T03:00:16.225Z,6.13
2023-04-18T03:07:50.268Z,6.06
2023-04-18T03:15:25.573Z,6.01
2023-04-18T03:22:59.727Z,5.96
2023-04-18T03:30:35.225Z,5.94
2023-04-18T03:38:09.342Z,5.91
2023-04-18T03:45:47.945Z,5.89
2023-04-18T03:53:22.005Z,5.89
2023-04-18T04:00:57.565Z,5.92
2023-04-18T04:08:31.565Z,5.91
2023-04-18T04:16:08.610Z,5.93
2023-04-18T04:23:43.200Z,5.89
2023-04-18T04:31:18.841Z,5.91
2023-04-18T04:38:52.979Z,5.93
2023-04-18T04:46:30.922Z,5.96
2023-04-18T04:54:05.629Z,5.94
2023-04-18T05:01:40.999Z,5.93
2023-04-18T05:09:15.098Z,5.93
2023-04-18T05:16:50.482Z,5.97
2023-04-18T05:24:24.342Z,5.99
2023-04-18T05:31:59.759Z,6.02
2023-04-18T05:39:34.512Z,6.08
2023-04-18T05:47:09.959Z,6.13
2023-04-18T05:54:44.130Z,6.21
2023-04-18T06:02:19.569Z,6.29
2023-04-18T06:09:54.713Z,6.33
2023-04-18T06:17:30.317Z,6.47
2023-04-18T06:25:04.636Z,6.50
2023-04-18T06:32:40.530Z,6.56
2023-04-18T06:40:15.248Z,6.71
2023-04-18T06:47:51.629Z,6.83
2023-04-18T06:55:25.793Z,6.97
2023-04-18T07:03:02.241Z,7.08
2023-04-18T07:10:36.268Z,7.22
2023-04-18T07:18:12.481Z,7.39
2023-04-18T07:25:49.588Z,7.53
2023-04-18T07:33:25.118Z,7.65
2023-04-18T07:40:59.723Z,7.88
2023-04-18T07:48:35.347Z,7.98
2023-04-18T07:56:09.195Z,8.20
2023-04-18T08:03:44.702Z,8.57
2023-04-18T08:11:18.798Z,8.88
2023-04-18T08:18:54.186Z,9.01
2023-04-18T08:26:28.394Z,9.29
2023-04-18T08:34:05.105Z,9.27
2023-04-18T08:41:39.225Z,9.13
2023-04-18T08:49:14.765Z,9.11
2023-04-18T08:56:49.197Z,9.15
2023-04-18T09:04:38.545Z,9.19
2023-04-18T09:12:14.510Z,9.24
2023-04-18T09:19:50.721Z,9.34
2023-04-18T09:27:25.861Z,9.39
2023-04-18T09:35:04.994Z,9.50
2023-04-18T09:42:39.033Z,9.64
2023-04-18T09:50:16.552Z,9.73
2023-04-18T09:57:53.924Z,10.00
2023-04-18T10:05:32.890Z,10.21
2023-04-18T10:13:08.537Z,10.35
2023-04-18T10:20:44.598Z,10.49
2023-04-18T10:28:21.055Z,10.66
2023-04-18T10:36:02.186Z,10.84
2023-04-18T10:44:14.764Z,10.91
2023-04-18T10:51:51.245Z,11.06
2023-04-18T10:59:26.871Z,11.16
2023-04-18T11:07:03.104Z,11.36
2023-04-18T11:14:43.828Z,11.52
2023-04-18T11:22:19.524Z,11.67
2023-04-18T11:29:54.467Z,11.81
2023-04-18T11:37:29.643Z,11.83
2023-04-18T11:45:03.905Z,11.92
2023-04-18T11:52:41.212Z,11.94
2023-04-18T12:00:16.553Z,12.10
2023-04-18T12:07:52.208Z,12.31
2023-04-18T12:15:28.249Z,12.44
2023-04-18T12:23:04.509Z,12.52
2023-04-18T12:30:38.330Z,12.55
2023-04-18T12:38:13.777Z,12.73
2023-04-18T12:45:48.480Z,12.79
2023-04-18T12:53:24.119Z,12.82
2023-04-18T13:00:59.039Z,12.86
2023-04-18T13:08:35.117Z,12.81
2023-04-18T13:16:09.395Z,12.89
2023-04-18T13:23:44.822Z,12.92
2023-04-18T13:31:18.702Z,12.96
2023-04-18T13:38:54.450Z,13.04
2023-04-18T13:46:29.118Z,13.03
2023-04-18T13:54:04.953Z,13.04
2023-04-18T14:01:39.345Z,13.12
2023-04-18T14:09:14.921Z,13.13
2023-04-18T14:16:49.001Z,13.22
2023-04-18T14:24:24.446Z,13.27
2023-04-18T14:31:58.365Z,13.44
2023-04-18T14:39:33.807Z,13.61
2023-04-18T14:47:07.846Z,13.67
2023-04-18T14:54:44.015Z,13.67
2023-04-18T15:02:18.210Z,13.71
2023-04-18T15:09:54.403Z,13.72
2023-04-18T15:17:29.342Z,13.66
2023-04-18T15:25:05.721Z,13.61
2023-04-18T15:40:36.164Z,13.65
2023-04-18T15:48:10.107Z,13.59
2023-04-18T15:55:46.632Z,13.50
2023-04-18T16:03:21.003Z,13.45
2023-04-18T16:10:56.452Z,13.42
2023-04-18T16:18:30.696Z,13.41
2023-04-18T16:26:06.523Z,13.34
2023-04-18T16:33:40.609Z,13.33
2023-04-18T16:41:15.770Z,13.29
2023-04-18T16:48:51.805Z,13.26
2023-04-18T16:56:27.608Z,13.21
2023-04-18T17:04:01.413Z,13.12
2023-04-18T17:11:39.537Z,13.02
2023-04-18T17:19:13.974Z,12.88
2023-04-18T17:26:50.170Z,12.79
2023-04-18T17:34:24.253Z,12.69
2023-04-18T17:42:00.255Z,12.60
2023-04-18T17:49:35.060Z,12.55
2023-04-18T17:57:10.956Z,12.44
2023-04-18T18:04:44.997Z,12.31
2023-04-18T18:12:20.357Z,12.17
2023-04-18T18:19:54.211Z,11.97
2023-04-18T18:27:29.462Z,11.82
2023-04-18T18:35:05.606Z,11.69
2023-04-18T18:42:41.804Z,11.60
2023-04-18T18:50:15.631Z,11.38
2023-04-18T18:57:51.531Z,11.21
2023-04-18T19:05:25.838Z,11.06
2023-04-18T19:13:01.717Z,10.95
2023-04-18T19:20:35.649Z,10.76
2023-04-18T19:28:10.915Z,10.68
2023-04-18T19:35:44.725Z,10.56
2023-04-18T19:43:19.946Z,10.21
2023-04-18T19:50:53.770Z,10.02
2023-04-18T19:58:39.796Z,9.91
2023-04-18T20:06:14.269Z,9.80
2023-04-18T20:13:49.734Z,9.67
2023-04-18T20:21:23.780Z,9.48
2023-04-18T20:28:59.080Z,9.27
2023-04-18T20:36:34.427Z,9.14
2023-04-18T20:44:10.257Z,8.99
2023-04-18T20:51:44.114Z,8.86
2023-04-18T20:59:20.042Z,8.71
2023-04-18T21:06:54.195Z,8.68
2023-04-18T21:14:30.703Z,8.62
2023-04-18T21:22:04.617Z,8.48
2023-04-18T21:29:39.892Z,8.43
2023-04-18T21:37:13.746Z,8.32
2023-04-18T21:44:48.962Z,8.15
2023-04-18T21:52:22.879Z,7.98
2023-04-18T21:59:58.941Z,7.89
2023-04-18T22:07:34.183Z,7.69
2023-04-18T22:15:11.624Z,7.59
2023-04-18T22:22:45.720Z,7.46
2023-04-18T22:30:21.393Z,7.35
2023-04-18T22:37:56.375Z,7.23
2023-04-18T22:45:31.630Z,7.12
2023-04-18T22:53:06.153Z,7.00
2023-04-18T23:00:41.520Z,6.80
2023-04-18T23:08:18.806Z,6.69
2023-04-18T23:15:54.214Z,6.58
2023-04-18T23:23:28.196Z,6.59
2023-04-18T23:31:03.788Z,6.54
2023-04-18T23:38:38.537Z,6.53
2023-04-18T23:46:14.203Z,6.57
2023-04-18T23:53:48.245Z,6.53
